sensor_id;sensor_type;location;lat;lon;timestamp;temperature;humidity
68450;SHT30;55434;39.570;2.652;2022-09-03T00:01:14;25.22;69.06
68450;SHT30;55434;39.570;2.652;2022-09-03T00:03:51;25.12;69.06
68450;SHT30;55434;39.570;2.652;2022-09-03T00:06:25;25.12;69.07
68450;SHT30;55434;39.570;2.652;2022-09-03T00:09:24;25.13;69.13
68450;SHT30;55434;39.570;2.652;2022-09-03T00:12:05;25.19;69.41
68450;SHT30;55434;39.570;2.652;2022-09-03T00:14:42;25.16;69.43
68450;SHT30;55434;39.570;2.652;2022-09-03T00:17:13;25.19;69.43
68450;SHT30;55434;39.570;2.652;2022-09-03T00:19:45;25.22;69.22
68450;SHT30;55434;39.570;2.652;2022-09-03T00:22:22;25.22;69.43
68450;SHT30;55434;39.570;2.652;2022-09-03T00:24:49;25.23;69.16
68450;SHT30;55434;39.570;2.652;2022-09-03T00:27:19;25.22;69.24
68450;SHT30;55434;39.570;2.652;2022-09-03T00:29:52;25.23;69.34
68450;SHT30;55434;39.570;2.652;2022-09-03T00:32:32;25.27;69.39
68450;SHT30;55434;39.570;2.652;2022-09-03T00:35:03;25.29;69.28
68450;SHT30;55434;39.570;2.652;2022-09-03T00:37:30;25.27;69.86
68450;SHT30;55434;39.570;2.652;2022-09-03T00:39:56;25.32;70.37
68450;SHT30;55434;39.570;2.652;2022-09-03T00:51:14;25.26;70.68
68450;SHT30;55434;39.570;2.652;2022-09-03T00:59:54;25.23;70.56
68450;SHT30;55434;39.570;2.652;2022-09-03T01:02:30;25.16;70.14
68450;SHT30;55434;39.570;2.652;2022-09-03T01:07:51;25.08;70.33
68450;SHT30;55434;39.570;2.652;2022-09-03T01:13:11;25.16;70.18
68450;SHT30;55434;39.570;2.652;2022-09-03T01:37:47;25.02;68.51
68450;SHT30;55434;39.570;2.652;2022-09-03T01:46:12;25.05;68.86
68450;SHT30;55434;39.570;2.652;2022-09-03T01:48:57;25.13;68.61
68450;SHT30;55434;39.570;2.652;2022-09-03T01:51:29;25.13;68.35
68450;SHT30;55434;39.570;2.652;2022-09-03T02:00:09;25.08;68.76
68450;SHT30;55434;39.570;2.652;2022-09-03T02:02:38;25.00;69.27
68450;SHT30;55434;39.570;2.652;2022-09-03T02:05:31;25.00;70.13
68450;SHT30;55434;39.570;2.652;2022-09-03T02:07:58;24.88;70.10
68450;SHT30;55434;39.570;2.652;2022-09-03T02:13:23;24.92;70.62
68450;SHT30;55434;39.570;2.652;2022-09-03T02:15:51;24.88;70.94
68450;SHT30;55434;39.570;2.652;2022-09-03T02:18:21;24.82;71.29
68450;SHT30;55434;39.570;2.652;2022-09-03T02:20:49;24.82;71.46
68450;SHT30;55434;39.570;2.652;2022-09-03T02:23:19;24.79;71.69
68450;SHT30;55434;39.570;2.652;2022-09-03T02:25:50;24.85;71.46
68450;SHT30;55434;39.570;2.652;2022-09-03T02:28:17;24.81;70.78
68450;SHT30;55434;39.570;2.652;2022-09-03T02:30:43;24.73;70.65
68450;SHT30;55434;39.570;2.652;2022-09-03T02:33:10;24.82;70.65
68450;SHT30;55434;39.570;2.652;2022-09-03T02:35:36;24.93;70.23
68450;SHT30;55434;39.570;2.652;2022-09-03T02:38:16;24.86;70.42
68450;SHT30;55434;39.570;2.652;2022-09-03T02:40:43;24.98;70.88
68450;SHT30;55434;39.570;2.652;2022-09-03T02:43:15;24.88;70.41
68450;SHT30;55434;39.570;2.652;2022-09-03T02:45:47;24.98;70.59
68450;SHT30;55434;39.570;2.652;2022-09-03T02:48:19;24.86;70.90
68450;SHT30;55434;39.570;2.652;2022-09-03T02:50:46;24.81;71.20
68450;SHT30;55434;39.570;2.652;2022-09-03T02:53:12;24.73;71.65
68450;SHT30;55434;39.570;2.652;2022-09-03T02:55:38;24.72;72.21
68450;SHT30;55434;39.570;2.652;2022-09-03T02:58:03;24.72;72.48
68450;SHT30;55434;39.570;2.652;2022-09-03T03:00:31;24.75;72.64
68450;SHT30;55434;39.570;2.652;2022-09-03T03:02:57;24.79;72.53
68450;SHT30;55434;39.570;2.652;2022-09-03T03:05:53;24.82;72.91
68450;SHT30;55434;39.570;2.652;2022-09-03T03:08:24;24.82;73.04
68450;SHT30;55434;39.570;2.652;2022-09-03T03:10:55;24.85;73.62
68450;SHT30;55434;39.570;2.652;2022-09-03T03:13:27;25.02;73.07
68450;SHT30;55434;39.570;2.652;2022-09-03T03:16:01;25.15;73.06
68450;SHT30;55434;39.570;2.652;2022-09-03T03:18:26;25.15;72.77
68450;SHT30;55434;39.570;2.652;2022-09-03T03:20:53;25.03;72.88
68450;SHT30;55434;39.570;2.652;2022-09-03T03:23:19;25.18;72.33
68450;SHT30;55434;39.570;2.652;2022-09-03T03:25:45;25.19;72.10
68450;SHT30;55434;39.570;2.652;2022-09-03T03:28:10;25.30;72.17
68450;SHT30;55434;39.570;2.652;2022-09-03T03:30:38;25.34;71.35
68450;SHT30;55434;39.570;2.652;2022-09-03T03:33:05;25.16;71.48
68450;SHT30;55434;39.570;2.652;2022-09-03T03:35:31;25.08;71.78
68450;SHT30;55434;39.570;2.652;2022-09-03T03:37:58;24.99;71.83
68450;SHT30;55434;39.570;2.652;2022-09-03T03:40:24;24.85;72.03
68450;SHT30;55434;39.570;2.652;2022-09-03T03:42:52;24.79;72.30
68450;SHT30;55434;39.570;2.652;2022-09-03T03:45:21;24.71;72.16
68450;SHT30;55434;39.570;2.652;2022-09-03T03:47:46;24.69;72.13
68450;SHT30;55434;39.570;2.652;2022-09-03T03:50:12;24.71;72.21
68450;SHT30;55434;39.570;2.652;2022-09-03T03:52:37;24.78;72.03
68450;SHT30;55434;39.570;2.652;2022-09-03T03:55:04;24.78;72.14
68450;SHT30;55434;39.570;2.652;2022-09-03T03:57:31;24.76;71.97
68450;SHT30;55434;39.570;2.652;2022-09-03T03:59:56;24.73;72.41
68450;SHT30;55434;39.570;2.652;2022-09-03T04:02:22;24.75;72.31
68450;SHT30;55434;39.570;2.652;2022-09-03T04:04:47;24.76;72.38
68450;SHT30;55434;39.570;2.652;2022-09-03T04:07:13;24.78;72.21
68450;SHT30;55434;39.570;2.652;2022-09-03T04:09:39;24.76;71.96
68450;SHT30;55434;39.570;2.652;2022-09-03T04:12:04;24.73;71.64
68450;SHT30;55434;39.570;2.652;2022-09-03T04:14:33;24.65;71.24
68450;SHT30;55434;39.570;2.652;2022-09-03T04:16:59;24.64;71.30
68450;SHT30;55434;39.570;2.652;2022-09-03T04:19:25;24.61;71.41
68450;SHT30;55434;39.570;2.652;2022-09-03T04:21:52;24.58;71.57
68450;SHT30;55434;39.570;2.652;2022-09-03T04:24:18;24.57;71.73
68450;SHT30;55434;39.570;2.652;2022-09-03T04:26:44;24.54;71.94
68450;SHT30;55434;39.570;2.652;2022-09-03T04:29:09;24.54;73.20
68450;SHT30;55434;39.570;2.652;2022-09-03T04:31:36;24.55;72.56
68450;SHT30;55434;39.570;2.652;2022-09-03T04:34:02;24.55;72.73
68450;SHT30;55434;39.570;2.652;2022-09-03T04:36:31;24.54;72.70
68450;SHT30;55434;39.570;2.652;2022-09-03T04:38:59;24.54;72.95
68450;SHT30;55434;39.570;2.652;2022-09-03T04:41:27;24.51;72.70
68450;SHT30;55434;39.570;2.652;2022-09-03T04:43:55;24.51;72.50
68450;SHT30;55434;39.570;2.652;2022-09-03T04:46:23;24.49;72.52
68450;SHT30;55434;39.570;2.652;2022-09-03T04:48:52;24.47;72.67
68450;SHT30;55434;39.570;2.652;2022-09-03T04:51:21;24.47;72.57
68450;SHT30;55434;39.570;2.652;2022-09-03T04:53:53;24.44;72.67
68450;SHT30;55434;39.570;2.652;2022-09-03T04:56:25;24.41;72.70
68450;SHT30;55434;39.570;2.652;2022-09-03T04:59:03;24.42;72.99
68450;SHT30;55434;39.570;2.652;2022-09-03T05:01:31;24.42;72.52
68450;SHT30;55434;39.570;2.652;2022-09-03T05:03:58;24.44;72.28
68450;SHT30;55434;39.570;2.652;2022-09-03T05:06:28;24.41;71.73
68450;SHT30;55434;39.570;2.652;2022-09-03T05:08:54;24.45;71.36
68450;SHT30;55434;39.570;2.652;2022-09-03T05:11:21;24.44;71.52
68450;SHT30;55434;39.570;2.652;2022-09-03T05:13:48;24.41;71.34
68450;SHT30;55434;39.570;2.652;2022-09-03T05:16:14;24.40;71.46
68450;SHT30;55434;39.570;2.652;2022-09-03T05:18:40;24.44;71.29
68450;SHT30;55434;39.570;2.652;2022-09-03T05:21:12;24.35;71.47
68450;SHT30;55434;39.570;2.652;2022-09-03T05:23:40;24.47;71.35
68450;SHT30;55434;39.570;2.652;2022-09-03T05:26:09;24.42;71.41
68450;SHT30;55434;39.570;2.652;2022-09-03T05:28:37;24.38;71.57
68450;SHT30;55434;39.570;2.652;2022-09-03T05:31:19;24.44;71.54
68450;SHT30;55434;39.570;2.652;2022-09-03T05:33:47;24.47;71.39
68450;SHT30;55434;39.570;2.652;2022-09-03T05:36:17;24.57;71.07
68450;SHT30;55434;39.570;2.652;2022-09-03T05:38:44;24.57;70.73
68450;SHT30;55434;39.570;2.652;2022-09-03T05:41:11;24.59;70.65
68450;SHT30;55434;39.570;2.652;2022-09-03T05:43:37;24.59;70.70
68450;SHT30;55434;39.570;2.652;2022-09-03T05:46:08;24.61;70.65
68450;SHT30;55434;39.570;2.652;2022-09-03T05:48:36;24.69;70.57
68450;SHT30;55434;39.570;2.652;2022-09-03T05:51:05;24.72;70.27
68450;SHT30;55434;39.570;2.652;2022-09-03T05:53:36;24.75;70.12
68450;SHT30;55434;39.570;2.652;2022-09-03T05:56:04;24.75;69.97
68450;SHT30;55434;39.570;2.652;2022-09-03T05:58:35;24.82;69.82
68450;SHT30;55434;39.570;2.652;2022-09-03T06:01:23;24.88;69.62
68450;SHT30;55434;39.570;2.652;2022-09-03T06:03:54;24.88;69.56
68450;SHT30;55434;39.570;2.652;2022-09-03T06:06:24;24.95;69.50
68450;SHT30;55434;39.570;2.652;2022-09-03T06:08:53;25.00;69.30
68450;SHT30;55434;39.570;2.652;2022-09-03T06:11:20;25.05;68.94
68450;SHT30;55434;39.570;2.652;2022-09-03T06:13:47;25.06;68.79
68450;SHT30;55434;39.570;2.652;2022-09-03T06:16:13;25.13;68.93
68450;SHT30;55434;39.570;2.652;2022-09-03T06:18:39;25.13;68.53
68450;SHT30;55434;39.570;2.652;2022-09-03T06:21:06;25.19;68.11
68450;SHT30;55434;39.570;2.652;2022-09-03T06:23:34;25.22;68.05
68450;SHT30;55434;39.570;2.652;2022-09-03T06:26:07;25.29;67.99
68450;SHT30;55434;39.570;2.652;2022-09-03T06:28:34;25.36;67.83
68450;SHT30;55434;39.570;2.652;2022-09-03T06:31:05;25.42;67.63
68450;SHT30;55434;39.570;2.652;2022-09-03T06:33:32;25.44;67.62
68450;SHT30;55434;39.570;2.652;2022-09-03T06:35:59;25.49;67.36
68450;SHT30;55434;39.570;2.652;2022-09-03T06:38:27;25.50;67.76
68450;SHT30;55434;39.570;2.652;2022-09-03T06:41:00;25.60;67.35
68450;SHT30;55434;39.570;2.652;2022-09-03T06:43:31;25.67;67.57
68450;SHT30;55434;39.570;2.652;2022-09-03T06:46:08;25.83;67.20
68450;SHT30;55434;39.570;2.652;2022-09-03T06:48:37;26.01;67.30
68450;SHT30;55434;39.570;2.652;2022-09-03T06:53:38;26.08;67.83
68450;SHT30;55434;39.570;2.652;2022-09-03T06:56:09;26.06;68.74
68450;SHT30;55434;39.570;2.652;2022-09-03T06:58:37;26.05;68.67
68450;SHT30;55434;39.570;2.652;2022-09-03T07:01:09;26.06;69.34
68450;SHT30;55434;39.570;2.652;2022-09-03T07:03:36;26.12;69.34
68450;SHT30;55434;39.570;2.652;2022-09-03T07:06:08;26.24;69.52
68450;SHT30;55434;39.570;2.652;2022-09-03T07:08:34;26.20;69.29
68450;SHT30;55434;39.570;2.652;2022-09-03T07:11:06;26.31;69.15
68450;SHT30;55434;39.570;2.652;2022-09-03T07:13:40;26.36;69.02
68450;SHT30;55434;39.570;2.652;2022-09-03T07:16:11;26.42;68.86
68450;SHT30;55434;39.570;2.652;2022-09-03T07:18:37;26.44;69.63
68450;SHT30;55434;39.570;2.652;2022-09-03T07:21:07;26.56;69.64
68450;SHT30;55434;39.570;2.652;2022-09-03T07:23:35;26.66;70.65
68450;SHT30;55434;39.570;2.652;2022-09-03T07:26:03;26.78;70.59
68450;SHT30;55434;39.570;2.652;2022-09-03T07:28:29;26.99;69.71
68450;SHT30;55434;39.570;2.652;2022-09-03T07:31:05;27.10;70.65
68450;SHT30;55434;39.570;2.652;2022-09-03T07:33:31;27.17;71.86
68450;SHT30;55434;39.570;2.652;2022-09-03T07:36:08;27.17;71.98
68450;SHT30;55434;39.570;2.652;2022-09-03T07:38:34;27.34;70.97
68450;SHT30;55434;39.570;2.652;2022-09-03T07:41:06;27.46;72.20
68450;SHT30;55434;39.570;2.652;2022-09-03T07:43:34;27.67;71.01
68450;SHT30;55434;39.570;2.652;2022-09-03T07:46:00;27.94;70.95
68450;SHT30;55434;39.570;2.652;2022-09-03T07:48:26;28.13;68.58
68450;SHT30;55434;39.570;2.652;2022-09-03T07:50:52;28.26;69.47
68450;SHT30;55434;39.570;2.652;2022-09-03T07:53:24;28.28;71.17
68450;SHT30;55434;39.570;2.652;2022-09-03T07:55:50;28.18;72.76
68450;SHT30;55434;39.570;2.652;2022-09-03T07:58:16;28.36;71.04
68450;SHT30;55434;39.570;2.652;2022-09-03T08:00:42;28.39;71.79
68450;SHT30;55434;39.570;2.652;2022-09-03T08:03:08;28.47;71.54
68450;SHT30;55434;39.570;2.652;2022-09-03T08:05:37;28.52;71.51
68450;SHT30;55434;39.570;2.652;2022-09-03T08:08:06;28.49;71.42
68450;SHT30;55434;39.570;2.652;2022-09-03T08:10:36;28.59;71.64
68450;SHT30;55434;39.570;2.652;2022-09-03T08:13:21;28.59;71.45
68450;SHT30;55434;39.570;2.652;2022-09-03T08:15:54;28.74;70.74
68450;SHT30;55434;39.570;2.652;2022-09-03T08:18:32;28.66;71.30
68450;SHT30;55434;39.570;2.652;2022-09-03T08:21:07;28.71;71.38
68450;SHT30;55434;39.570;2.652;2022-09-03T08:23:41;28.91;70.83
68450;SHT30;55434;39.570;2.652;2022-09-03T08:26:08;28.89;71.13
68450;SHT30;55434;39.570;2.652;2022-09-03T08:28:35;28.81;70.72
68450;SHT30;55434;39.570;2.652;2022-09-03T08:31:11;28.79;70.88
68450;SHT30;55434;39.570;2.652;2022-09-03T08:33:42;28.80;70.74
68450;SHT30;55434;39.570;2.652;2022-09-03T08:36:14;28.89;70.66
68450;SHT30;55434;39.570;2.652;2022-09-03T08:38:40;29.00;69.76
68450;SHT30;55434;39.570;2.652;2022-09-03T08:43:59;29.18;69.67
68450;SHT30;55434;39.570;2.652;2022-09-03T08:52:16;29.35;69.37
68450;SHT30;55434;39.570;2.652;2022-09-03T08:54:47;29.44;68.74
68450;SHT30;55434;39.570;2.652;2022-09-03T08:57:16;29.37;68.55
68450;SHT30;55434;39.570;2.652;2022-09-03T08:59:43;29.35;68.68
68450;SHT30;55434;39.570;2.652;2022-09-03T09:02:25;29.24;68.48
68450;SHT30;55434;39.570;2.652;2022-09-03T09:08:23;28.97;69.74
68450;SHT30;55434;39.570;2.652;2022-09-03T09:11:11;28.91;70.09
68450;SHT30;55434;39.570;2.652;2022-09-03T09:13:44;28.90;69.59
68450;SHT30;55434;39.570;2.652;2022-09-03T09:16:21;28.94;69.59
68450;SHT30;55434;39.570;2.652;2022-09-03T09:21:56;28.94;68.97
68450;SHT30;55434;39.570;2.652;2022-09-03T09:24:26;29.06;68.11
68450;SHT30;55434;39.570;2.652;2022-09-03T09:27:03;29.17;67.14
68450;SHT30;55434;39.570;2.652;2022-09-03T09:29:35;29.20;67.21
68450;SHT30;55434;39.570;2.652;2022-09-03T09:32:02;29.27;67.36
68450;SHT30;55434;39.570;2.652;2022-09-03T09:34:35;29.32;67.27
68450;SHT30;55434;39.570;2.652;2022-09-03T09:37:12;29.39;67.21
68450;SHT30;55434;39.570;2.652;2022-09-03T09:40:10;29.38;67.04
68450;SHT30;55434;39.570;2.652;2022-09-03T09:42:46;29.45;66.81
68450;SHT30;55434;39.570;2.652;2022-09-03T09:45:13;29.48;67.11
68450;SHT30;55434;39.570;2.652;2022-09-03T09:47:39;29.61;66.32
68450;SHT30;55434;39.570;2.652;2022-09-03T09:50:17;29.65;65.85
68450;SHT30;55434;39.570;2.652;2022-09-03T09:52:47;29.66;66.38
68450;SHT30;55434;39.570;2.652;2022-09-03T09:55:16;29.69;67.07
68450;SHT30;55434;39.570;2.652;2022-09-03T09:57:43;29.85;66.61
68450;SHT30;55434;39.570;2.652;2022-09-03T10:00:14;29.83;66.93
68450;SHT30;55434;39.570;2.652;2022-09-03T10:02:50;29.82;66.90
68450;SHT30;55434;39.570;2.652;2022-09-03T10:05:30;29.96;66.40
68450;SHT30;55434;39.570;2.652;2022-09-03T10:08:04;30.20;65.73
68450;SHT30;55434;39.570;2.652;2022-09-03T10:10:38;30.47;65.49
68450;SHT30;55434;39.570;2.652;2022-09-03T10:13:12;30.64;65.00
68450;SHT30;55434;39.570;2.652;2022-09-03T10:16:06;30.63;65.14
68450;SHT30;55434;39.570;2.652;2022-09-03T10:21:53;30.59;63.89
68450;SHT30;55434;39.570;2.652;2022-09-03T10:24:40;30.63;63.37
68450;SHT30;55434;39.570;2.652;2022-09-03T10:27:15;30.77;62.65
68450;SHT30;55434;39.570;2.652;2022-09-03T10:29:43;30.60;63.20
68450;SHT30;55434;39.570;2.652;2022-09-03T10:32:21;30.54;62.91
68450;SHT30;55434;39.570;2.652;2022-09-03T10:37:39;30.70;63.73
68450;SHT30;55434;39.570;2.652;2022-09-03T10:40:16;30.96;63.30
68450;SHT30;55434;39.570;2.652;2022-09-03T10:48:38;33.45;58.18
68450;SHT30;55434;39.570;2.652;2022-09-03T10:51:22;32.77;60.25
68450;SHT30;55434;39.570;2.652;2022-09-03T10:57:09;32.41;61.17
68450;SHT30;55434;39.570;2.652;2022-09-03T11:08:57;31.50;63.99
68450;SHT30;55434;39.570;2.652;2022-09-03T11:11:37;31.35;64.84
68450;SHT30;55434;39.570;2.652;2022-09-03T11:14:12;31.19;64.72
68450;SHT30;55434;39.570;2.652;2022-09-03T11:16:47;31.35;64.54
68450;SHT30;55434;39.570;2.652;2022-09-03T11:19:21;31.11;65.96
68450;SHT30;55434;39.570;2.652;2022-09-03T11:21:50;31.41;65.55
68450;SHT30;55434;39.570;2.652;2022-09-03T11:24:20;34.08;58.29
68450;SHT30;55434;39.570;2.652;2022-09-03T11:26:56;35.43;54.96
68450;SHT30;55434;39.570;2.652;2022-09-03T11:32:57;35.22;55.80
68450;SHT30;55434;39.570;2.652;2022-09-03T11:35:38;36.23;52.57
68450;SHT30;55434;39.570;2.652;2022-09-03T11:38:28;35.29;53.49
68450;SHT30;55434;39.570;2.652;2022-09-03T11:41:26;33.69;57.09
68450;SHT30;55434;39.570;2.652;2022-09-03T11:43:53;32.43;60.95
68450;SHT30;55434;39.570;2.652;2022-09-03T11:46:29;31.52;63.69
68450;SHT30;55434;39.570;2.652;2022-09-03T11:49:12;30.88;65.75
68450;SHT30;55434;39.570;2.652;2022-09-03T11:51:39;30.41;67.26
68450;SHT30;55434;39.570;2.652;2022-09-03T11:56:48;30.08;69.52
68450;SHT30;55434;39.570;2.652;2022-09-03T11:59:21;30.00;69.72
68450;SHT30;55434;39.570;2.652;2022-09-03T12:01:49;30.05;69.61
68450;SHT30;55434;39.570;2.652;2022-09-03T12:04:21;30.16;69.81
68450;SHT30;55434;39.570;2.652;2022-09-03T12:18:30;31.34;66.45
68450;SHT30;55434;39.570;2.652;2022-09-03T12:26:19;31.02;66.09
68450;SHT30;55434;39.570;2.652;2022-09-03T12:28:56;31.47;64.72
68450;SHT30;55434;39.570;2.652;2022-09-03T12:34:10;35.23;54.85
68450;SHT30;55434;39.570;2.652;2022-09-03T12:36:47;35.40;54.88
68450;SHT30;55434;39.570;2.652;2022-09-03T12:39:16;33.97;57.96
68450;SHT30;55434;39.570;2.652;2022-09-03T12:47:11;34.88;56.49
68450;SHT30;55434;39.570;2.652;2022-09-03T12:49:42;34.75;56.75
68450;SHT30;55434;39.570;2.652;2022-09-03T12:55:02;32.91;61.82
68450;SHT30;55434;39.570;2.652;2022-09-03T12:57:43;32.27;63.94
68450;SHT30;55434;39.570;2.652;2022-09-03T13:00:13;31.85;65.12
68450;SHT30;55434;39.570;2.652;2022-09-03T13:05:35;32.02;64.76
68450;SHT30;55434;39.570;2.652;2022-09-03T13:08:07;32.12;64.37
68450;SHT30;55434;39.570;2.652;2022-09-03T13:10:43;32.17;64.38
68450;SHT30;55434;39.570;2.652;2022-09-03T13:24:27;33.89;60.24
68450;SHT30;55434;39.570;2.652;2022-09-03T13:27:53;33.69;60.48
68450;SHT30;55434;39.570;2.652;2022-09-03T13:30:09;32.47;64.11
68450;SHT30;55434;39.570;2.652;2022-09-03T13:44:00;33.19;63.22
68450;SHT30;55434;39.570;2.652;2022-09-03T13:46:52;33.73;61.58
68450;SHT30;55434;39.570;2.652;2022-09-03T13:52:30;32.64;64.28
68450;SHT30;55434;39.570;2.652;2022-09-03T13:58:27;31.94;66.24
68450;SHT30;55434;39.570;2.652;2022-09-03T14:03:31;33.01;62.49
68450;SHT30;55434;39.570;2.652;2022-09-03T14:09:17;32.70;60.13
68450;SHT30;55434;39.570;2.652;2022-09-03T14:17:44;31.28;64.03
68450;SHT30;55434;39.570;2.652;2022-09-03T14:20:23;30.88;65.54
68450;SHT30;55434;39.570;2.652;2022-09-03T14:25:25;31.31;65.05
68450;SHT30;55434;39.570;2.652;2022-09-03T14:27:52;31.31;64.87
68450;SHT30;55434;39.570;2.652;2022-09-03T14:30:27;31.45;64.87
68450;SHT30;55434;39.570;2.652;2022-09-03T14:33:15;31.75;64.23
68450;SHT30;55434;39.570;2.652;2022-09-03T14:49:45;33.52;54.59
68450;SHT30;55434;39.570;2.652;2022-09-03T14:55:28;34.64;50.98
68450;SHT30;55434;39.570;2.652;2022-09-03T14:58:19;33.53;53.43
68450;SHT30;55434;39.570;2.652;2022-09-03T15:01:02;32.88;56.93
68450;SHT30;55434;39.570;2.652;2022-09-03T15:06:44;31.96;60.46
68450;SHT30;55434;39.570;2.652;2022-09-03T15:09:26;33.32;57.07
68450;SHT30;55434;39.570;2.652;2022-09-03T15:12:02;34.07;55.29
68450;SHT30;55434;39.570;2.652;2022-09-03T15:14:57;34.67;54.48
68450;SHT30;55434;39.570;2.652;2022-09-03T15:20:46;34.10;56.47
68450;SHT30;55434;39.570;2.652;2022-09-03T15:23:23;34.57;55.83
68450;SHT30;55434;39.570;2.652;2022-09-03T15:25:57;34.59;55.99
68450;SHT30;55434;39.570;2.652;2022-09-03T15:28:44;34.95;55.32
68450;SHT30;55434;39.570;2.652;2022-09-03T15:34:47;35.60;52.43
68450;SHT30;55434;39.570;2.652;2022-09-03T15:37:29;35.53;52.42
68450;SHT30;55434;39.570;2.652;2022-09-03T15:42:29;34.06;54.39
68450;SHT30;55434;39.570;2.652;2022-09-03T15:45:06;32.92;56.83
68450;SHT30;55434;39.570;2.652;2022-09-03T15:50:34;33.28;56.55
68450;SHT30;55434;39.570;2.652;2022-09-03T15:56:14;34.24;54.69
68450;SHT30;55434;39.570;2.652;2022-09-03T16:01:43;33.94;56.26
68450;SHT30;55434;39.570;2.652;2022-09-03T16:04:39;33.62;58.29
68450;SHT30;55434;39.570;2.652;2022-09-03T16:07:20;33.83;56.77
68450;SHT30;55434;39.570;2.652;2022-09-03T16:12:40;32.64;59.00
68450;SHT30;55434;39.570;2.652;2022-09-03T16:15:16;32.16;60.50
68450;SHT30;55434;39.570;2.652;2022-09-03T16:18:07;31.96;60.14
68450;SHT30;55434;39.570;2.652;2022-09-03T16:23:06;32.26;59.85
68450;SHT30;55434;39.570;2.652;2022-09-03T16:25:47;31.77;60.98
68450;SHT30;55434;39.570;2.652;2022-09-03T16:28:23;31.63;60.30
68450;SHT30;55434;39.570;2.652;2022-09-03T16:31:02;31.45;60.66
68450;SHT30;55434;39.570;2.652;2022-09-03T16:34:00;31.28;62.77
68450;SHT30;55434;39.570;2.652;2022-09-03T16:36:46;31.19;63.56
68450;SHT30;55434;39.570;2.652;2022-09-03T16:40:11;31.10;63.31
68450;SHT30;55434;39.570;2.652;2022-09-03T16:42:30;31.45;62.12
68450;SHT30;55434;39.570;2.652;2022-09-03T16:45:08;31.80;61.27
68450;SHT30;55434;39.570;2.652;2022-09-03T16:50:49;32.20;56.94
68450;SHT30;55434;39.570;2.652;2022-09-03T16:56:18;31.80;57.82
68450;SHT30;55434;39.570;2.652;2022-09-03T16:59:07;32.58;54.82
68450;SHT30;55434;39.570;2.652;2022-09-03T17:07:40;33.32;52.11
68450;SHT30;55434;39.570;2.652;2022-09-03T17:16:18;33.56;52.02
68450;SHT30;55434;39.570;2.652;2022-09-03T17:18:52;33.08;54.02
68450;SHT30;55434;39.570;2.652;2022-09-03T17:21:32;32.53;56.91
68450;SHT30;55434;39.570;2.652;2022-09-03T17:24:35;32.81;56.77
68450;SHT30;55434;39.570;2.652;2022-09-03T17:30:06;31.70;59.10
68450;SHT30;55434;39.570;2.652;2022-09-03T17:32:46;31.24;59.65
68450;SHT30;55434;39.570;2.652;2022-09-03T17:35:35;30.84;60.67
68450;SHT30;55434;39.570;2.652;2022-09-03T17:38:13;30.48;62.25
68450;SHT30;55434;39.570;2.652;2022-09-03T17:46:11;29.83;63.96
68450;SHT30;55434;39.570;2.652;2022-09-03T17:48:54;29.73;63.09
68450;SHT30;55434;39.570;2.652;2022-09-03T17:54:06;29.59;62.69
68450;SHT30;55434;39.570;2.652;2022-09-03T17:56:44;29.52;65.05
68450;SHT30;55434;39.570;2.652;2022-09-03T18:01:58;29.35;66.45
68450;SHT30;55434;39.570;2.652;2022-09-03T18:04:45;29.24;65.61
68450;SHT30;55434;39.570;2.652;2022-09-03T18:12:53;29.10;62.39
68450;SHT30;55434;39.570;2.652;2022-09-03T18:15:30;29.17;61.57
68450;SHT30;55434;39.570;2.652;2022-09-03T18:18:07;29.27;61.51
68450;SHT30;55434;39.570;2.652;2022-09-03T18:20:49;29.30;60.87
68450;SHT30;55434;39.570;2.652;2022-09-03T18:24:03;29.34;59.30
68450;SHT30;55434;39.570;2.652;2022-09-03T18:26:57;29.35;59.26
68450;SHT30;55434;39.570;2.652;2022-09-03T18:29:46;29.34;60.40
68450;SHT30;55434;39.570;2.652;2022-09-03T18:32:31;29.35;60.76
68450;SHT30;55434;39.570;2.652;2022-09-03T18:35:16;29.32;59.80
68450;SHT30;55434;39.570;2.652;2022-09-03T18:38:02;29.31;59.42
68450;SHT30;55434;39.570;2.652;2022-09-03T18:41:07;29.27;60.37
68450;SHT30;55434;39.570;2.652;2022-09-03T18:50:11;29.01;64.25
68450;SHT30;55434;39.570;2.652;2022-09-03T18:53:13;29.00;60.59
68450;SHT30;55434;39.570;2.652;2022-09-03T18:56:25;29.07;57.89
68450;SHT30;55434;39.570;2.652;2022-09-03T19:09:16;29.17;53.41
68450;SHT30;55434;39.570;2.652;2022-09-03T19:12:31;29.42;45.29
68450;SHT30;55434;39.570;2.652;2022-09-03T19:15:25;29.49;47.19
68450;SHT30;55434;39.570;2.652;2022-09-03T19:21:21;29.34;50.09
68450;SHT30;55434;39.570;2.652;2022-09-03T19:24:08;29.31;51.49
68450;SHT30;55434;39.570;2.652;2022-09-03T19:33:12;29.18;52.50
68450;SHT30;55434;39.570;2.652;2022-09-03T19:42:11;29.07;54.19
68450;SHT30;55434;39.570;2.652;2022-09-03T19:45:11;28.97;54.41
68450;SHT30;55434;39.570;2.652;2022-09-03T19:51:13;28.80;55.82
68450;SHT30;55434;39.570;2.652;2022-09-03T19:54:02;28.80;55.57
68450;SHT30;55434;39.570;2.652;2022-09-03T19:56:49;28.73;54.38
68450;SHT30;55434;39.570;2.652;2022-09-03T19:59:38;28.79;56.39
68450;SHT30;55434;39.570;2.652;2022-09-03T20:02:23;28.79;57.79
68450;SHT30;55434;39.570;2.652;2022-09-03T20:05:12;28.76;59.85
68450;SHT30;55434;39.570;2.652;2022-09-03T20:07:59;28.73;62.41
68450;SHT30;55434;39.570;2.652;2022-09-03T20:10:44;28.73;64.33
68450;SHT30;55434;39.570;2.652;2022-09-03T20:13:15;28.66;66.08
68450;SHT30;55434;39.570;2.652;2022-09-03T20:15:50;28.60;66.79
68450;SHT30;55434;39.570;2.652;2022-09-03T20:35:04;28.23;70.03
68450;SHT30;55434;39.570;2.652;2022-09-03T20:46:53;27.91;71.46
68450;SHT30;55434;39.570;2.652;2022-09-03T20:49:44;27.87;71.68
68450;SHT30;55434;39.570;2.652;2022-09-03T20:52:21;28.01;71.06
68450;SHT30;55434;39.570;2.652;2022-09-03T20:55:10;27.92;71.79
68450;SHT30;55434;39.570;2.652;2022-09-03T21:00:14;27.82;70.82
68450;SHT30;55434;39.570;2.652;2022-09-03T21:03:03;27.80;69.64
68450;SHT30;55434;39.570;2.652;2022-09-03T21:08:46;27.64;70.88
68450;SHT30;55434;39.570;2.652;2022-09-03T21:13:59;27.64;70.64
68450;SHT30;55434;39.570;2.652;2022-09-03T21:19:39;27.64;69.23
68450;SHT30;55434;39.570;2.652;2022-09-03T21:22:23;27.61;70.54
68450;SHT30;55434;39.570;2.652;2022-09-03T21:25:01;27.54;69.42
68450;SHT30;55434;39.570;2.652;2022-09-03T21:27:42;27.54;70.73
68450;SHT30;55434;39.570;2.652;2022-09-03T21:30:20;27.58;70.41
68450;SHT30;55434;39.570;2.652;2022-09-03T21:32:53;27.55;70.26
68450;SHT30;55434;39.570;2.652;2022-09-03T21:35:29;27.51;69.67
68450;SHT30;55434;39.570;2.652;2022-09-03T21:38:10;27.55;70.86
68450;SHT30;55434;39.570;2.652;2022-09-03T21:41:04;27.58;70.35
68450;SHT30;55434;39.570;2.652;2022-09-03T21:43:41;27.61;69.42
68450;SHT30;55434;39.570;2.652;2022-09-03T21:46:16;27.61;70.27
68450;SHT30;55434;39.570;2.652;2022-09-03T21:48:59;27.54;70.27